sensor_id;sensor_type;location;lat;lon;timestamp;temperature;humidity
65291;SHT30;51893;59.754;10.110;2022-12-11T00:00:56;-10.05;76.77
65291;SHT30;51893;59.754;10.110;2022-12-11T00:03:39;-10.11;76.88
65291;SHT30;51893;59.754;10.110;2022-12-11T00:06:11;-10.27;77.19
65291;SHT30;51893;59.754;10.110;2022-12-11T00:08:42;-10.34;77.41
65291;SHT30;51893;59.754;10.110;2022-12-11T00:11:15;-10.42;77.50
65291;SHT30;51893;59.754;10.110;2022-12-11T00:13:42;-10.53;77.69
65291;SHT30;51893;59.754;10.110;2022-12-11T00:16:10;-10.45;77.66
65291;SHT30;51893;59.754;10.110;2022-12-11T00:18:38;-10.34;77.35
65291;SHT30;51893;59.754;10.110;2022-12-11T00:21:07;-10.32;77.14
65291;SHT30;51893;59.754;10.110;2022-12-11T00:23:38;-10.41;77.26
65291;SHT30;51893;59.754;10.110;2022-12-11T00:26:06;-10.45;77.48
65291;SHT30;51893;59.754;10.110;2022-12-11T00:28:38;-10.38;77.55
65291;SHT30;51893;59.754;10.110;2022-12-11T00:31:08;-10.38;77.61
65291;SHT30;51893;59.754;10.110;2022-12-11T00:33:42;-10.45;77.79
65291;SHT30;51893;59.754;10.110;2022-12-11T00:36:13;-10.33;77.85
65291;SHT30;51893;59.754;10.110;2022-12-11T00:38:43;-10.24;77.64
65291;SHT30;51893;59.754;10.110;2022-12-11T00:41:10;-10.26;77.05
65291;SHT30;51893;59.754;10.110;2022-12-11T00:43:38;-10.24;76.73
65291;SHT30;51893;59.754;10.110;2022-12-11T00:46:05;-10.28;76.53
65291;SHT30;51893;59.754;10.110;2022-12-11T00:48:33;-10.31;76.62
65291;SHT30;51893;59.754;10.110;2022-12-11T00:51:01;-10.35;76.58
65291;SHT30;51893;59.754;10.110;2022-12-11T00:53:31;-10.20;76.72
65291;SHT30;51893;59.754;10.110;2022-12-11T00:55:58;-10.03;76.31
65291;SHT30;51893;59.754;10.110;2022-12-11T00:58:26;-9.94;75.92
65291;SHT30;51893;59.754;10.110;2022-12-11T01:00:53;-9.97;75.52
65291;SHT30;51893;59.754;10.110;2022-12-11T01:03:21;-10.00;75.71
65291;SHT30;51893;59.754;10.110;2022-12-11T01:05:49;-9.99;75.74
65291;SHT30;51893;59.754;10.110;2022-12-11T01:08:20;-9.98;75.83
65291;SHT30;51893;59.754;10.110;2022-12-11T01:10:47;-9.93;75.71
65291;SHT30;51893;59.754;10.110;2022-12-11T01:13:14;-9.88;75.65
65291;SHT30;51893;59.754;10.110;2022-12-11T01:15:42;-9.83;75.59
65291;SHT30;51893;59.754;10.110;2022-12-11T01:18:11;-9.87;75.37
65291;SHT30;51893;59.754;10.110;2022-12-11T01:20:40;-9.76;75.31
65291;SHT30;51893;59.754;10.110;2022-12-11T01:23:09;-9.73;74.86
65291;SHT30;51893;59.754;10.110;2022-12-11T01:25:38;-9.75;74.65
65291;SHT30;51893;59.754;10.110;2022-12-11T01:28:06;-9.72;74.60
65291;SHT30;51893;59.754;10.110;2022-12-11T01:30:34;-9.75;74.84
65291;SHT30;51893;59.754;10.110;2022-12-11T01:33:01;-9.73;74.83
65291;SHT30;51893;59.754;10.110;2022-12-11T01:35:29;-9.88;74.72
65291;SHT30;51893;59.754;10.110;2022-12-11T01:37:57;-10.14;75.14
65291;SHT30;51893;59.754;10.110;2022-12-11T01:40:24;-10.24;75.68
65291;SHT30;51893;59.754;10.110;2022-12-11T01:42:51;-10.16;75.76
65291;SHT30;51893;59.754;10.110;2022-12-11T01:45:37;-10.18;75.47
65291;SHT30;51893;59.754;10.110;2022-12-11T01:48:08;-10.14;75.63
65291;SHT30;51893;59.754;10.110;2022-12-11T01:50:54;-10.14;75.46
65291;SHT30;51893;59.754;10.110;2022-12-11T01:53:27;-10.19;75.34
65291;SHT30;51893;59.754;10.110;2022-12-11T01:56:00;-10.24;75.48
65291;SHT30;51893;59.754;10.110;2022-12-11T01:58:33;-10.35;75.56
65291;SHT30;51893;59.754;10.110;2022-12-11T02:01:06;-10.53;75.88
65291;SHT30;51893;59.754;10.110;2022-12-11T02:03:43;-10.55;76.22
65291;SHT30;51893;59.754;10.110;2022-12-11T02:09:08;-10.30;75.95
65291;SHT30;51893;59.754;10.110;2022-12-11T02:11:57;-10.29;75.77
65291;SHT30;51893;59.754;10.110;2022-12-11T02:17:25;-10.40;76.10
65291;SHT30;51893;59.754;10.110;2022-12-11T02:35:06;-10.86;76.03
65291;SHT30;51893;59.754;10.110;2022-12-11T02:37:41;-10.87;76.48
65291;SHT30;51893;59.754;10.110;2022-12-11T02:40:12;-10.85;76.63
65291;SHT30;51893;59.754;10.110;2022-12-11T02:42:45;-10.87;76.67
65291;SHT30;51893;59.754;10.110;2022-12-11T02:45:15;-10.86;76.77
65291;SHT30;51893;59.754;10.110;2022-12-11T02:47:45;-10.84;76.76
65291;SHT30;51893;59.754;10.110;2022-12-11T02:50:16;-10.87;76.74
65291;SHT30;51893;59.754;10.110;2022-12-11T02:52:46;-10.84;76.77
65291;SHT30;51893;59.754;10.110;2022-12-11T02:55:16;-10.85;76.73
65291;SHT30;51893;59.754;10.110;2022-12-11T02:57:46;-10.83;76.74
65291;SHT30;51893;59.754;10.110;2022-12-11T03:00:19;-10.86;76.81
65291;SHT30;51893;59.754;10.110;2022-12-11T03:02:47;-10.86;76.81
65291;SHT30;51893;59.754;10.110;2022-12-11T03:05:14;-10.87;76.75
65291;SHT30;51893;59.754;10.110;2022-12-11T03:07:41;-10.93;76.51
65291;SHT30;51893;59.754;10.110;2022-12-11T03:10:11;-11.09;76.49
65291;SHT30;51893;59.754;10.110;2022-12-11T03:12:44;-11.25;76.79
65291;SHT30;51893;59.754;10.110;2022-12-11T03:15:21;-11.28;77.05
65291;SHT30;51893;59.754;10.110;2022-12-11T03:21:04;-11.12;76.92
65291;SHT30;51893;59.754;10.110;2022-12-11T03:23:43;-11.11;76.68
65291;SHT30;51893;59.754;10.110;2022-12-11T03:26:25;-11.09;76.73
65291;SHT30;51893;59.754;10.110;2022-12-11T03:28:59;-11.03;76.71
65291;SHT30;51893;59.754;10.110;2022-12-11T03:32:30;-11.02;76.57
65291;SHT30;51893;59.754;10.110;2022-12-11T03:35:12;-10.95;76.46
65291;SHT30;51893;59.754;10.110;2022-12-11T03:37:47;-10.89;76.25
65291;SHT30;51893;59.754;10.110;2022-12-11T03:40:18;-10.80;76.25
65291;SHT30;51893;59.754;10.110;2022-12-11T03:42:50;-10.76;76.16
65291;SHT30;51893;59.754;10.110;2022-12-11T03:45:21;-10.67;75.94
65291;SHT30;51893;59.754;10.110;2022-12-11T03:47:51;-10.68;75.80
65291;SHT30;51893;59.754;10.110;2022-12-11T03:50:22;-10.65;75.73
65291;SHT30;51893;59.754;10.110;2022-12-11T03:52:55;-10.62;75.67
65291;SHT30;51893;59.754;10.110;2022-12-11T03:55:26;-10.71;75.84
65291;SHT30;51893;59.754;10.110;2022-12-11T03:57:55;-10.75;75.80
65291;SHT30;51893;59.754;10.110;2022-12-11T04:00:22;-10.86;75.92
65291;SHT30;51893;59.754;10.110;2022-12-11T04:02:49;-10.85;76.09
65291;SHT30;51893;59.754;10.110;2022-12-11T04:05:40;-10.88;75.99
65291;SHT30;51893;59.754;10.110;2022-12-11T04:08:17;-10.90;76.28
65291;SHT30;51893;59.754;10.110;2022-12-11T04:10:48;-10.87;76.36
65291;SHT30;51893;59.754;10.110;2022-12-11T04:13:35;-10.85;76.55
65291;SHT30;51893;59.754;10.110;2022-12-11T04:16:03;-10.70;76.47
65291;SHT30;51893;59.754;10.110;2022-12-11T04:18:30;-10.59;76.25
65291;SHT30;51893;59.754;10.110;2022-12-11T04:21:15;-10.55;75.90
65291;SHT30;51893;59.754;10.110;2022-12-11T04:24:06;-10.59;75.83
65291;SHT30;51893;59.754;10.110;2022-12-11T04:26:44;-10.51;75.85
65291;SHT30;51893;59.754;10.110;2022-12-11T04:29:13;-10.46;75.47
65291;SHT30;51893;59.754;10.110;2022-12-11T04:31:47;-10.48;75.41
65291;SHT30;51893;59.754;10.110;2022-12-11T04:34:16;-10.49;75.42
65291;SHT30;51893;59.754;10.110;2022-12-11T04:36:42;-10.47;75.22
65291;SHT30;51893;59.754;10.110;2022-12-11T04:39:10;-10.40;75.06
65291;SHT30;51893;59.754;10.110;2022-12-11T04:41:37;-10.34;74.69
65291;SHT30;51893;59.754;10.110;2022-12-11T04:44:04;-10.47;74.36
65291;SHT30;51893;59.754;10.110;2022-12-11T04:46:31;-10.58;74.52
65291;SHT30;51893;59.754;10.110;2022-12-11T04:48:58;-10.65;75.03
65291;SHT30;51893;59.754;10.110;2022-12-11T04:51:26;-10.62;75.45
65291;SHT30;51893;59.754;10.110;2022-12-11T04:53:55;-10.51;75.43
65291;SHT30;51893;59.754;10.110;2022-12-11T04:56:23;-10.44;75.39
65291;SHT30;51893;59.754;10.110;2022-12-11T04:58:50;-10.39;75.25
65291;SHT30;51893;59.754;10.110;2022-12-11T05:01:19;-10.47;75.46
65291;SHT30;51893;59.754;10.110;2022-12-11T05:03:48;-10.64;76.29
65291;SHT30;51893;59.754;10.110;2022-12-11T05:06:15;-10.74;76.59
65291;SHT30;51893;59.754;10.110;2022-12-11T05:08:42;-10.77;76.77
65291;SHT30;51893;59.754;10.110;2022-12-11T05:11:11;-10.77;76.74
65291;SHT30;51893;59.754;10.110;2022-12-11T05:13:43;-10.85;76.57
65291;SHT30;51893;59.754;10.110;2022-12-11T05:16:13;-10.86;76.55
65291;SHT30;51893;59.754;10.110;2022-12-11T05:18:42;-10.89;76.47
65291;SHT30;51893;59.754;10.110;2022-12-11T05:21:11;-10.81;76.46
65291;SHT30;51893;59.754;10.110;2022-12-11T05:23:41;-10.87;75.93
65291;SHT30;51893;59.754;10.110;2022-12-11T05:26:11;-10.93;75.93
65291;SHT30;51893;59.754;10.110;2022-12-11T05:28:41;-10.74;76.04
65291;SHT30;51893;59.754;10.110;2022-12-11T05:31:16;-10.71;75.48
65291;SHT30;51893;59.754;10.110;2022-12-11T05:33:47;-10.60;75.61
65291;SHT30;51893;59.754;10.110;2022-12-11T05:36:22;-10.45;75.42
65291;SHT30;51893;59.754;10.110;2022-12-11T05:38:54;-10.41;75.06
65291;SHT30;51893;59.754;10.110;2022-12-11T05:41:25;-10.51;75.00
65291;SHT30;51893;59.754;10.110;2022-12-11T05:43:58;-10.55;74.92
65291;SHT30;51893;59.754;10.110;2022-12-11T05:46:26;-10.62;74.91
65291;SHT30;51893;59.754;10.110;2022-12-11T05:48:56;-10.63;75.09
65291;SHT30;51893;59.754;10.110;2022-12-11T05:51:26;-10.66;74.86
65291;SHT30;51893;59.754;10.110;2022-12-11T05:53:56;-10.64;75.00
65291;SHT30;51893;59.754;10.110;2022-12-11T05:56:24;-10.65;74.86
65291;SHT30;51893;59.754;10.110;2022-12-11T05:58:55;-10.69;74.89
65291;SHT30;51893;59.754;10.110;2022-12-11T06:01:25;-10.66;74.93
65291;SHT30;51893;59.754;10.110;2022-12-11T06:03:56;-10.63;74.92
65291;SHT30;51893;59.754;10.110;2022-12-11T06:06:25;-10.58;74.57
65291;SHT30;51893;59.754;10.110;2022-12-11T06:08:54;-10.50;74.63
65291;SHT30;51893;59.754;10.110;2022-12-11T06:11:23;-10.58;74.64
65291;SHT30;51893;59.754;10.110;2022-12-11T06:13:57;-10.73;74.78
65291;SHT30;51893;59.754;10.110;2022-12-11T06:16:25;-10.84;75.06
65291;SHT30;51893;59.754;10.110;2022-12-11T06:18:52;-10.90;75.27
65291;SHT30;51893;59.754;10.110;2022-12-11T06:23:53;-11.05;75.80
65291;SHT30;51893;59.754;10.110;2022-12-11T06:26:23;-11.03;75.78
65291;SHT30;51893;59.754;10.110;2022-12-11T06:28:52;-11.09;75.60
65291;SHT30;51893;59.754;10.110;2022-12-11T06:31:19;-11.21;75.83
65291;SHT30;51893;59.754;10.110;2022-12-11T06:33:47;-11.23;76.04
65291;SHT30;51893;59.754;10.110;2022-12-11T06:36:16;-11.29;76.36
65291;SHT30;51893;59.754;10.110;2022-12-11T06:38:48;-11.35;76.84
65291;SHT30;51893;59.754;10.110;2022-12-11T06:41:17;-11.31;77.04
65291;SHT30;51893;59.754;10.110;2022-12-11T06:43:45;-11.18;76.78
65291;SHT30;51893;59.754;10.110;2022-12-11T06:46:13;-11.13;76.51
65291;SHT30;51893;59.754;10.110;2022-12-11T06:48:44;-11.01;76.53
65291;SHT30;51893;59.754;10.110;2022-12-11T06:51:13;-10.89;76.51
65291;SHT30;51893;59.754;10.110;2022-12-11T06:53:49;-10.86;76.18
65291;SHT30;51893;59.754;10.110;2022-12-11T06:56:18;-10.85;76.08
65291;SHT30;51893;59.754;10.110;2022-12-11T06:58:45;-10.96;76.24
65291;SHT30;51893;59.754;10.110;2022-12-11T07:01:16;-10.95;76.41
65291;SHT30;51893;59.754;10.110;2022-12-11T07:03:50;-10.92;76.47
65291;SHT30;51893;59.754;10.110;2022-12-11T07:06:19;-10.91;76.55
65291;SHT30;51893;59.754;10.110;2022-12-11T07:08:46;-10.92;76.75
65291;SHT30;51893;59.754;10.110;2022-12-11T07:11:15;-10.86;76.80
65291;SHT30;51893;59.754;10.110;2022-12-11T07:13:44;-10.92;76.63
65291;SHT30;51893;59.754;10.110;2022-12-11T07:16:12;-10.87;76.70
65291;SHT30;51893;59.754;10.110;2022-12-11T07:18:45;-10.79;76.57
65291;SHT30;51893;59.754;10.110;2022-12-11T07:21:14;-10.75;76.50
65291;SHT30;51893;59.754;10.110;2022-12-11T07:23:45;-10.73;76.32
65291;SHT30;51893;59.754;10.110;2022-12-11T07:26:15;-10.79;76.10
65291;SHT30;51893;59.754;10.110;2022-12-11T07:28:47;-10.93;76.35
65291;SHT30;51893;59.754;10.110;2022-12-11T07:31:16;-11.00;76.78
65291;SHT30;51893;59.754;10.110;2022-12-11T07:33:59;-11.15;77.16
65291;SHT30;51893;59.754;10.110;2022-12-11T07:36:31;-11.42;77.84
65291;SHT30;51893;59.754;10.110;2022-12-11T07:38:59;-11.52;78.33
65291;SHT30;51893;59.754;10.110;2022-12-11T07:41:27;-11.54;78.40
65291;SHT30;51893;59.754;10.110;2022-12-11T07:43:54;-11.49;78.51
65291;SHT30;51893;59.754;10.110;2022-12-11T07:46:22;-11.46;78.43
65291;SHT30;51893;59.754;10.110;2022-12-11T07:48:54;-11.43;78.47
65291;SHT30;51893;59.754;10.110;2022-12-11T07:51:26;-11.39;78.52
65291;SHT30;51893;59.754;10.110;2022-12-11T07:54:00;-11.38;78.47
65291;SHT30;51893;59.754;10.110;2022-12-11T07:56:45;-11.39;78.38
65291;SHT30;51893;59.754;10.110;2022-12-11T07:59:19;-11.41;78.49
65291;SHT30;51893;59.754;10.110;2022-12-11T08:01:46;-11.44;78.62
65291;SHT30;51893;59.754;10.110;2022-12-11T08:04:13;-11.42;78.71
65291;SHT30;51893;59.754;10.110;2022-12-11T08:06:43;-11.37;78.73
65291;SHT30;51893;59.754;10.110;2022-12-11T08:09:11;-11.35;78.70
65291;SHT30;51893;59.754;10.110;2022-12-11T08:11:49;-11.31;78.71
65291;SHT30;51893;59.754;10.110;2022-12-11T08:14:17;-11.32;78.74
65291;SHT30;51893;59.754;10.110;2022-12-11T08:16:46;-11.27;78.84
65291;SHT30;51893;59.754;10.110;2022-12-11T08:19:16;-11.18;78.83
65291;SHT30;51893;59.754;10.110;2022-12-11T08:21:43;-11.07;78.81
65291;SHT30;51893;59.754;10.110;2022-12-11T08:24:10;-11.01;78.64
65291;SHT30;51893;59.754;10.110;2022-12-11T08:26:36;-10.99;78.46
65291;SHT30;51893;59.754;10.110;2022-12-11T08:29:03;-10.88;78.35
65291;SHT30;51893;59.754;10.110;2022-12-11T08:31:31;-10.84;78.01
65291;SHT30;51893;59.754;10.110;2022-12-11T08:33:58;-10.79;77.90
65291;SHT30;51893;59.754;10.110;2022-12-11T08:36:26;-10.76;77.74
65291;SHT30;51893;59.754;10.110;2022-12-11T08:38:53;-10.75;77.72
65291;SHT30;51893;59.754;10.110;2022-12-11T08:41:25;-10.68;77.72
65291;SHT30;51893;59.754;10.110;2022-12-11T08:43:56;-10.62;77.70
65291;SHT30;51893;59.754;10.110;2022-12-11T08:46:26;-10.67;77.86
65291;SHT30;51893;59.754;10.110;2022-12-11T08:48:57;-10.76;78.13
65291;SHT30;51893;59.754;10.110;2022-12-11T08:51:24;-10.82;78.47
65291;SHT30;51893;59.754;10.110;2022-12-11T08:53:54;-10.89;78.91
65291;SHT30;51893;59.754;10.110;2022-12-11T08:56:24;-10.99;79.18
65291;SHT30;51893;59.754;10.110;2022-12-11T08:58:54;-11.06;79.19
65291;SHT30;51893;59.754;10.110;2022-12-11T09:01:22;-11.10;79.20
65291;SHT30;51893;59.754;10.110;2022-12-11T09:03:53;-11.14;79.43
65291;SHT30;51893;59.754;10.110;2022-12-11T09:06:22;-11.17;79.64
65291;SHT30;51893;59.754;10.110;2022-12-11T09:08:53;-11.15;79.71
65291;SHT30;51893;59.754;10.110;2022-12-11T09:11:25;-11.10;79.74
65291;SHT30;51893;59.754;10.110;2022-12-11T09:13:55;-11.06;79.74
65291;SHT30;51893;59.754;10.110;2022-12-11T09:16:27;-11.02;79.74
65291;SHT30;51893;59.754;10.110;2022-12-11T09:18:57;-10.94;79.78
65291;SHT30;51893;59.754;10.110;2022-12-11T09:21:26;-10.85;79.76
65291;SHT30;51893;59.754;10.110;2022-12-11T09:23:56;-10.79;79.74
65291;SHT30;51893;59.754;10.110;2022-12-11T09:26:26;-10.73;79.77
65291;SHT30;51893;59.754;10.110;2022-12-11T09:28:57;-10.67;79.60
65291;SHT30;51893;59.754;10.110;2022-12-11T09:33:54;-10.45;79.34
65291;SHT30;51893;59.754;10.110;2022-12-11T09:36:23;-10.31;78.94
65291;SHT30;51893;59.754;10.110;2022-12-11T09:38:51;-10.15;78.77
65291;SHT30;51893;59.754;10.110;2022-12-11T09:46:45;-9.76;78.17
65291;SHT30;51893;59.754;10.110;2022-12-11T09:55:01;-9.76;78.07
65291;SHT30;51893;59.754;10.110;2022-12-11T10:00:40;-9.80;78.40
65291;SHT30;51893;59.754;10.110;2022-12-11T10:06:28;-9.86;78.70
65291;SHT30;51893;59.754;10.110;2022-12-11T10:15:53;-9.53;78.61
65291;SHT30;51893;59.754;10.110;2022-12-11T10:19:03;-9.43;78.70
65291;SHT30;51893;59.754;10.110;2022-12-11T10:21:35;-9.35;78.58
65291;SHT30;51893;59.754;10.110;2022-12-11T10:27:23;-9.46;77.98
65291;SHT30;51893;59.754;10.110;2022-12-11T10:38:26;-9.59;78.17
65291;SHT30;51893;59.754;10.110;2022-12-11T10:41:01;-9.54;78.26
65291;SHT30;51893;59.754;10.110;2022-12-11T10:46:18;-9.51;78.41
65291;SHT30;51893;59.754;10.110;2022-12-11T10:48:49;-9.54;78.51
65291;SHT30;51893;59.754;10.110;2022-12-11T10:51:24;-9.51;78.72
65291;SHT30;51893;59.754;10.110;2022-12-11T10:57:00;-9.42;78.80
65291;SHT30;51893;59.754;10.110;2022-12-11T10:59:38;-9.31;78.68
65291;SHT30;51893;59.754;10.110;2022-12-11T11:02:33;-9.29;78.56
65291;SHT30;51893;59.754;10.110;2022-12-11T11:05:13;-9.24;78.58
65291;SHT30;51893;59.754;10.110;2022-12-11T11:08:03;-9.24;78.50
65291;SHT30;51893;59.754;10.110;2022-12-11T11:13:29;-9.10;78.44
65291;SHT30;51893;59.754;10.110;2022-12-11T11:15:57;-9.03;78.44
65291;SHT30;51893;59.754;10.110;2022-12-11T11:18:37;-8.92;78.38
65291;SHT30;51893;59.754;10.110;2022-12-11T11:21:06;-8.80;78.27
65291;SHT30;51893;59.754;10.110;2022-12-11T11:23:45;-8.74;78.01
65291;SHT30;51893;59.754;10.110;2022-12-11T11:26:20;-8.73;77.82
65291;SHT30;51893;59.754;10.110;2022-12-11T11:28:54;-8.78;77.88
65291;SHT30;51893;59.754;10.110;2022-12-11T11:31:32;-8.85;77.92
65291;SHT30;51893;59.754;10.110;2022-12-11T11:34:05;-8.90;78.20
65291;SHT30;51893;59.754;10.110;2022-12-11T11:36:37;-8.91;78.45
65291;SHT30;51893;59.754;10.110;2022-12-11T11:42:20;-8.86;78.80
65291;SHT30;51893;59.754;10.110;2022-12-11T11:45:04;-8.93;78.95
65291;SHT30;51893;59.754;10.110;2022-12-11T11:47:44;-8.87;79.14
65291;SHT30;51893;59.754;10.110;2022-12-11T11:50:26;-8.76;79.14
65291;SHT30;51893;59.754;10.110;2022-12-11T11:53:02;-8.69;78.97
65291;SHT30;51893;59.754;10.110;2022-12-11T11:58:42;-8.71;78.56
65291;SHT30;51893;59.754;10.110;2022-12-11T12:01:15;-8.69;78.65
65291;SHT30;51893;59.754;10.110;2022-12-11T12:03:54;-8.63;78.73
65291;SHT30;51893;59.754;10.110;2022-12-11T12:06:27;-8.59;78.67
65291;SHT30;51893;59.754;10.110;2022-12-11T12:12:21;-8.50;78.56
65291;SHT30;51893;59.754;10.110;2022-12-11T12:15:21;-8.39;78.62
65291;SHT30;51893;59.754;10.110;2022-12-11T12:21:45;-8.26;78.60
65291;SHT30;51893;59.754;10.110;2022-12-11T12:30:19;-8.15;78.27
65291;SHT30;51893;59.754;10.110;2022-12-11T12:42:10;-8.07;78.34
65291;SHT30;51893;59.754;10.110;2022-12-11T12:45:26;-8.06;78.45
65291;SHT30;51893;59.754;10.110;2022-12-11T12:48:09;-7.98;78.40
65291;SHT30;51893;59.754;10.110;2022-12-11T12:50:39;-7.90;78.38
65291;SHT30;51893;59.754;10.110;2022-12-11T12:53:24;-7.85;78.35
65291;SHT30;51893;59.754;10.110;2022-12-11T12:55:59;-7.84;78.19
65291;SHT30;51893;59.754;10.110;2022-12-11T13:01:07;-7.78;78.16
65291;SHT30;51893;59.754;10.110;2022-12-11T13:03:50;-7.75;78.19
65291;SHT30;51893;59.754;10.110;2022-12-11T13:06:53;-7.73;78.10
65291;SHT30;51893;59.754;10.110;2022-12-11T13:09:23;-7.79;78.11
65291;SHT30;51893;59.754;10.110;2022-12-11T13:11:57;-7.84;78.27
65291;SHT30;51893;59.754;10.110;2022-12-11T13:19:47;-7.68;78.22
65291;SHT30;51893;59.754;10.110;2022-12-11T13:22:22;-7.69;78.25
65291;SHT30;51893;59.754;10.110;2022-12-11T13:27:41;-7.52;78.22
65291;SHT30;51893;59.754;10.110;2022-12-11T13:32:42;-7.38;78.24
65291;SHT30;51893;59.754;10.110;2022-12-11T13:35:27;-7.33;78.14
65291;SHT30;51893;59.754;10.110;2022-12-11T13:40:52;-7.20;77.91
65291;SHT30;51893;59.754;10.110;2022-12-11T13:43:25;-7.16;77.97
65291;SHT30;51893;59.754;10.110;2022-12-11T13:45:55;-7.14;77.88
65291;SHT30;51893;59.754;10.110;2022-12-11T13:48:28;-7.29;77.86
65291;SHT30;51893;59.754;10.110;2022-12-11T13:51:19;-7.40;78.17
65291;SHT30;51893;59.754;10.110;2022-12-11T13:54:00;-7.40;78.32
65291;SHT30;51893;59.754;10.110;2022-12-11T13:56:52;-7.39;78.47
65291;SHT30;51893;59.754;10.110;2022-12-11T13:59:35;-7.42;78.57
65291;SHT30;51893;59.754;10.110;2022-12-11T14:05:07;-7.48;78.83
65291;SHT30;51893;59.754;10.110;2022-12-11T14:07:39;-7.48;78.97
65291;SHT30;51893;59.754;10.110;2022-12-11T14:10:20;-7.48;79.00
65291;SHT30;51893;59.754;10.110;2022-12-11T14:15:25;-7.45;78.87
65291;SHT30;51893;59.754;10.110;2022-12-11T14:17:55;-7.49;79.00
65291;SHT30;51893;59.754;10.110;2022-12-11T14:20:27;-7.54;79.07
65291;SHT30;51893;59.754;10.110;2022-12-11T14:23:34;-7.54;79.19
65291;SHT30;51893;59.754;10.110;2022-12-11T14:28:53;-7.59;79.29
65291;SHT30;51893;59.754;10.110;2022-12-11T14:31:34;-7.61;79.39
65291;SHT30;51893;59.754;10.110;2022-12-11T14:34:16;-7.60;79.39
65291;SHT30;51893;59.754;10.110;2022-12-11T14:36:55;-7.63;79.37
65291;SHT30;51893;59.754;10.110;2022-12-11T14:39:27;-7.56;79.37
65291;SHT30;51893;59.754;10.110;2022-12-11T14:42:07;-7.51;79.29
65291;SHT30;51893;59.754;10.110;2022-12-11T14:44:50;-7.47;79.20
65291;SHT30;51893;59.754;10.110;2022-12-11T14:47:29;-7.45;79.13
65291;SHT30;51893;59.754;10.110;2022-12-11T14:53:25;-7.43;79.13
65291;SHT30;51893;59.754;10.110;2022-12-11T14:56:07;-7.41;79.12
65291;SHT30;51893;59.754;10.110;2022-12-11T14:58:44;-7.39;78.99
65291;SHT30;51893;59.754;10.110;2022-12-11T15:01:33;-7.43;78.94
65291;SHT30;51893;59.754;10.110;2022-12-11T15:06:53;-7.43;79.10
65291;SHT30;51893;59.754;10.110;2022-12-11T15:11:56;-7.43;79.04
65291;SHT30;51893;59.754;10.110;2022-12-11T15:14:41;-7.41;79.10
65291;SHT30;51893;59.754;10.110;2022-12-11T15:17:18;-7.38;79.06
65291;SHT30;51893;59.754;10.110;2022-12-11T15:20:02;-7.40;79.05
65291;SHT30;51893;59.754;10.110;2022-12-11T15:22:36;-7.27;79.15
65291;SHT30;51893;59.754;10.110;2022-12-11T15:25:16;-7.24;78.97
65291;SHT30;51893;59.754;10.110;2022-12-11T15:27:55;-7.28;78.90
65291;SHT30;51893;59.754;10.110;2022-12-11T15:30:30;-7.30;78.92
65291;SHT30;51893;59.754;10.110;2022-12-11T15:35:50;-7.34;78.91
65291;SHT30;51893;59.754;10.110;2022-12-11T15:38:37;-7.34;79.01
65291;SHT30;51893;59.754;10.110;2022-12-11T15:41:13;-7.32;79.09
65291;SHT30;51893;59.754;10.110;2022-12-11T15:43:45;-7.29;78.98
65291;SHT30;51893;59.754;10.110;2022-12-11T15:46:24;-7.24;78.97
65291;SHT30;51893;59.754;10.110;2022-12-11T15:48:53;-7.23;78.86
65291;SHT30;51893;59.754;10.110;2022-12-11T15:51:22;-7.27;78.83
65291;SHT30;51893;59.754;10.110;2022-12-11T15:53:49;-7.25;78.83
65291;SHT30;51893;59.754;10.110;2022-12-11T15:56:15;-7.29;78.73
65291;SHT30;51893;59.754;10.110;2022-12-11T15:58:44;-7.36;78.73
65291;SHT30;51893;59.754;10.110;2022-12-11T16:01:12;-7.39;78.87
65291;SHT30;51893;59.754;10.110;2022-12-11T16:03:41;-7.38;78.96
65291;SHT30;51893;59.754;10.110;2022-12-11T16:06:11;-7.36;78.98
65291;SHT30;51893;59.754;10.110;2022-12-11T16:08:39;-7.34;78.89
65291;SHT30;51893;59.754;10.110;2022-12-11T16:11:06;-7.36;78.77
65291;SHT30;51893;59.754;10.110;2022-12-11T16:13:35;-7.35;78.67
65291;SHT30;51893;59.754;10.110;2022-12-11T16:16:02;-7.40;78.57
65291;SHT30;51893;59.754;10.110;2022-12-11T16:18:31;-7.40;78.60
65291;SHT30;51893;59.754;10.110;2022-12-11T16:21:02;-7.36;78.59
65291;SHT30;51893;59.754;10.110;2022-12-11T16:23:33;-7.26;78.53
65291;SHT30;51893;59.754;10.110;2022-12-11T16:26:04;-7.19;78.36
65291;SHT30;51893;59.754;10.110;2022-12-11T16:28:34;-7.10;78.17
65291;SHT30;51893;59.754;10.110;2022-12-11T16:31:02;-7.09;77.91
65291;SHT30;51893;59.754;10.110;2022-12-11T16:33:29;-7.06;77.79
65291;SHT30;51893;59.754;10.110;2022-12-11T16:35:57;-7.05;77.68
65291;SHT30;51893;59.754;10.110;2022-12-11T16:38:30;-7.05;77.58
65291;SHT30;51893;59.754;10.110;2022-12-11T16:40:59;-7.07;77.47
65291;SHT30;51893;59.754;10.110;2022-12-11T16:43:29;-7.14;77.41
65291;SHT30;51893;59.754;10.110;2022-12-11T16:46:01;-7.28;77.39
65291;SHT30;51893;59.754;10.110;2022-12-11T16:48:28;-7.31;77.55
65291;SHT30;51893;59.754;10.110;2022-12-11T16:50:55;-7.32;77.61
65291;SHT30;51893;59.754;10.110;2022-12-11T16:53:23;-7.38;77.68
65291;SHT30;51893;59.754;10.110;2022-12-11T16:55:50;-7.40;77.79
65291;SHT30;51893;59.754;10.110;2022-12-11T16:58:17;-7.42;77.85
65291;SHT30;51893;59.754;10.110;2022-12-11T17:00:46;-7.45;77.92
65291;SHT30;51893;59.754;10.110;2022-12-11T17:03:16;-7.45;78.01
65291;SHT30;51893;59.754;10.110;2022-12-11T17:05:44;-7.41;78.02
65291;SHT30;51893;59.754;10.110;2022-12-11T17:08:12;-7.41;78.01
65291;SHT30;51893;59.754;10.110;2022-12-11T17:10:39;-7.46;77.91
65291;SHT30;51893;59.754;10.110;2022-12-11T17:13:08;-7.49;77.99
65291;SHT30;51893;59.754;10.110;2022-12-11T17:15:42;-7.51;78.04
65291;SHT30;51893;59.754;10.110;2022-12-11T17:18:14;-7.49;78.00
65291;SHT30;51893;59.754;10.110;2022-12-11T17:20:41;-7.43;77.92
65291;SHT30;51893;59.754;10.110;2022-12-11T17:23:10;-7.38;77.86
65291;SHT30;51893;59.754;10.110;2022-12-11T17:25:40;-7.45;77.70
65291;SHT30;51893;59.754;10.110;2022-12-11T17:28:09;-7.49;77.78
65291;SHT30;51893;59.754;10.110;2022-12-11T17:30:41;-7.51;77.89
65291;SHT30;51893;59.754;10.110;2022-12-11T17:33:10;-7.47;78.01
65291;SHT30;51893;59.754;10.110;2022-12-11T17:35:39;-7.38;77.85
65291;SHT30;51893;59.754;10.110;2022-12-11T17:38:07;-7.45;77.74
65291;SHT30;51893;59.754;10.110;2022-12-11T17:40:39;-7.45;77.85
65291;SHT30;51893;59.754;10.110;2022-12-11T17:43:09;-7.38;77.83
65291;SHT30;51893;59.754;10.110;2022-12-11T17:45:41;-7.30;77.67
65291;SHT30;51893;59.754;10.110;2022-12-11T17:48:10;-7.28;77.50
65291;SHT30;51893;59.754;10.110;2022-12-11T17:50:41;-7.32;77.32
65291;SHT30;51893;59.754;10.110;2022-12-11T17:53:12;-7.36;77.35
65291;SHT30;51893;59.754;10.110;2022-12-11T17:55:42;-7.38;77.40
65291;SHT30;51893;59.754;10.110;2022-12-11T17:58:11;-7.42;77.37